Time;durP1;ratioP1;P1;durP2;ratioP2;P2;SDS_P1;SDS_P2;PMS_P1;PMS_P2;Temp;Humidity;BMP_temperature;BMP_pressure;BME280_temperature;BME280_humidity;BME280_pressure;Samples;Min_cycle;Max_cycle;Signal;HPM_P1;HPM_P2
2024/03/05 02:02:35;;;;;;;;;2.00;2.00;;;;;11.15;100.00;100386.44;6228571;22;45784;-84
2024/03/05 02:05:01;;;;;;;;;2.67;2.67;;;;;11.07;100.00;100408.53;6219320;22;45382;-84
2024/03/05 02:07:28;;;;;;;;;3.00;1.00;;;;;11.19;100.00;100416.63;6249060;22;45327;-83
2024/03/05 02:09:55;;;;;;;;;1.67;1.67;;;;;11.13;100.00;100404.16;6219972;22;46975;-84
2024/03/05 02:12:21;;;;;;;;;2.67;2.67;;;;;11.15;100.00;100414.81;6219440;22;45377;-85
2024/03/05 02:14:47;;;;;;;;;2.00;2.00;;;;;10.99;100.00;100381.91;6218711;22;45341;-84
2024/03/05 02:17:12;;;;;;;;;4.00;2.67;;;;;11.14;100.00;100408.59;6246463;22;45618;-85
2024/03/05 02:19:46;;;;;;;;;2.33;2.33;;;;;11.16;100.00;100380.22;6217281;22;47196;-84
2024/03/05 02:22:11;;;;;;;;;1.67;1.67;;;;;11.08;100.00;100397.91;6217893;22;45392;-84
2024/03/05 02:24:37;;;;;;;;;3.00;3.00;;;;;11.12;100.00;100391.72;6218276;22;45337;-84
2024/03/05 02:27:06;;;;;;;;;2.33;2.33;;;;;11.23;100.00;100393.56;6220298;22;45410;-84
2024/03/05 02:29:34;;;;;;;;;6.00;6.00;;;;;11.24;100.00;100408.66;6220059;22;48367;-84
2024/03/05 02:32:00;;;;;;;;;4.00;3.00;;;;;11.01;100.00;100367.72;6248872;22;45320;-84
2024/03/05 02:34:25;;;;;;;;;2.33;2.33;;;;;11.25;100.00;100405.09;6247531;22;45367;-84
2024/03/05 02:36:51;;;;;;;;;3.00;3.00;;;;;11.31;100.00;100405.13;6251377;22;45392;-84
2024/03/05 02:39:17;;;;;;;;;3.00;3.00;;;;;11.32;100.00;100386.53;6222147;22;47633;-84
2024/03/05 02:41:43;;;;;;;;;1.33;1.33;;;;;11.43;100.00;100405.19;6219700;22;45412;-84
2024/03/05 02:44:09;;;;;;;;;3.00;3.00;;;;;11.41;100.00;100386.59;6249541;22;45255;-84
2024/03/05 02:46:35;;;;;;;;;2.00;2.00;;;;;11.39;100.00;100392.75;6248403;22;45470;-84
2024/03/05 02:49:01;;;;;;;;;6.00;4.00;;;;;11.21;100.00;100353.66;6221189;22;47308;-84
2024/03/05 02:51:28;;;;;;;;;2.67;2.67;;;;;11.28;100.00;100387.38;6219725;22;45344;-84
2024/03/05 02:53:55;;;;;;;;;2.00;2.00;;;;;11.37;100.00;100403.44;6223472;22;45369;-84
2024/03/05 02:56:21;;;;;;;;;4.00;1.00;;;;;11.19;100.00;100369.59;6249910;22;45320;-83
2024/03/05 02:58:46;;;;;;;;;4.00;4.00;;;;;11.33;100.00;100398.97;6249203;22;45267;-84
2024/03/05 03:01:12;;;;;;;;;7.00;4.67;;;;;11.32;100.00;100399.84;6250143;22;45328;-84
2024/03/05 03:03:38;;;;;;;;;4.00;4.00;;;;;11.33;100.00;100398.97;6250080;22;45337;-84
2024/03/05 03:06:04;;;;;;;;;3.33;3.33;;;;;11.31;100.00;100395.41;6224192;22;45535;-84
2024/03/05 03:08:30;;;;;;;;;3.00;2.33;;;;;11.35;100.00;100389.22;6222843;22;47125;-84
2024/03/05 03:10:56;;;;;;;;;3.67;3.67;;;;;11.42;100.00;100408.75;6223267;22;45342;-84
2024/03/05 03:13:23;;;;;;;;;2.33;2.33;;;;;11.33;100.00;100401.63;6222707;22;45443;-84
2024/03/05 03:15:51;;;;;;;;;2.00;2.00;;;;;11.49;100.00;100404.34;6222242;22;45573;-84
2024/03/05 03:18:17;;;;;;;;;2.00;2.00;;;;;11.35;100.00;100397.19;6248289;22;45687;-83
2024/03/05 03:20:42;;;;;;;;;2.00;1.00;;;;;11.40;100.00;100402.53;6221757;22;45358;-84
2024/03/05 03:23:08;;;;;;;;;5.33;3.00;;;;;11.34;100.00;100383.88;6220294;22;45276;-84
2024/03/05 03:25:33;;;;;;;;;1.33;1.33;;;;;11.31;100.00;100387.41;6219902;22;45324;-84
2024/03/05 03:27:58;;;;;;;;;3.00;2.33;;;;;11.36;100.00;100404.28;6220365;22;46623;-83
2024/03/05 03:30:26;;;;;;;;;7.00;3.00;;;;;11.39;100.00;100388.34;6218477;22;45847;-84
2024/03/05 03:32:52;;;;;;;;;3.67;3.00;;;;;11.27;100.00;100398.94;6248239;22;45354;-83
2024/03/05 03:35:24;;;;;;;;;1.67;1.67;;;;;11.41;100.00;100399.91;6248021;22;45359;-83
2024/03/05 03:37:49;;;;;;;;;4.00;4.00;;;;;11.26;100.00;100398.91;6245033;22;45398;-84
2024/03/05 03:40:21;;;;;;;;;3.67;2.00;;;;;11.29;100.00;100391.84;6218208;22;45430;-84
2024/03/05 03:42:48;;;;;;;;;3.00;3.00;;;;;11.32;100.00;100402.50;6247810;22;45297;-84
2024/03/05 03:45:15;;;;;;;;;3.00;3.00;;;;;11.27;100.00;100398.94;6247056;22;45482;-83
2024/03/05 03:47:41;;;;;;;;;2.67;2.00;;;;;11.30;100.00;100398.94;6220045;22;47404;-84
2024/03/05 03:50:07;;;;;;;;;4.00;2.00;;;;;11.26;100.00;100397.13;6220811;22;45672;-84
2024/03/05 03:52:33;;;;;;;;;3.00;3.00;;;;;11.33;100.00;100408.69;6217786;22;45364;-84
2024/03/05 03:54:58;;;;;;;;;2.67;2.67;;;;;11.30;100.00;100416.69;6219220;22;45399;-83
2024/03/05 03:57:27;;;;;;;;;4.00;2.67;;;;;11.32;100.00;100409.59;6248499;22;45743;-83
2024/03/05 03:59:56;;;;;;;;;2.00;2.00;;;;;11.29;100.00;100412.22;6220565;22;45246;-84
2024/03/05 04:02:21;;;;;;;;;3.00;3.00;;;;;11.25;100.00;100415.75;6249528;22;44814;-84
2024/03/05 04:04:53;;;;;;;;;3.67;3.00;;;;;11.41;100.00;100409.63;6220502;22;45463;-84
2024/03/05 04:07:19;;;;;;;;;3.67;3.67;;;;;11.33;100.00;100417.59;6250231;22;45658;-84
2024/03/05 04:09:45;;;;;;;;;5.33;2.33;;;;;11.27;100.00;100414.91;6222556;22;45428;-83
2024/03/05 04:12:12;;;;;;;;;4.67;4.67;;;;;11.20;100.00;100405.09;6220336;22;45325;-84
2024/03/05 04:14:38;;;;;;;;;4.00;3.00;;;;;11.24;100.00;100406.00;6221114;22;45405;-84
2024/03/05 04:17:04;;;;;;;;;3.50;3.50;;;;;11.30;100.00;100409.59;6220512;22;47539;-83
2024/03/05 04:19:30;;;;;;;;;4.00;2.33;;;;;11.34;100.00;100416.69;6219961;22;45602;-84
2024/03/05 04:21:56;;;;;;;;;3.00;3.00;;;;;11.21;100.00;100401.56;6222322;22;45304;-83
2024/03/05 04:24:21;;;;;;;;;4.67;3.67;;;;;11.29;100.00;100412.22;6223688;22;45319;-84
2024/03/05 04:26:50;;;;;;;;;4.00;3.33;;;;;11.31;100.00;100406.06;6250217;22;45996;-84
2024/03/05 04:29:19;;;;;;;;;3.00;3.00;;;;;11.33;100.00;100411.38;6249120;22;45360;-84
2024/03/05 04:31:55;;;;;;;;;6.67;3.67;;;;;11.34;100.00;100411.38;6221978;22;45329;-84
2024/03/05 04:34:21;;;;;;;;;3.33;3.33;;;;;11.36;100.00;100420.28;6221144;22;45307;-84
2024/03/05 04:36:46;;;;;;;;;3.33;3.33;;;;;11.39;100.00;100422.97;6247489;22;45541;-84
2024/03/05 04:39:15;;;;;;;;;4.67;3.00;;;;;11.46;100.00;100425.66;6248389;22;45297;-83
2024/03/05 04:41:44;;;;;;;;;3.33;3.33;;;;;11.57;100.00;100423.91;6245288;22;45347;-83
2024/03/05 04:44:10;;;;;;;;;4.00;3.00;;;;;11.37;100.00;100416.75;6219075;22;45359;-83
2024/03/05 04:46:35;;;;;;;;;8.00;4.00;;;;;11.58;100.00;100412.41;6245238;22;45999;-84
2024/03/05 04:49:00;;;;;;;;;2.67;2.67;;;;;11.75;100.00;100429.31;6250426;22;45324;-84
2024/03/05 04:51:27;;;;;;;;;4.00;4.00;;;;;11.92;100.00;100420.56;6248152;22;45252;-84
2024/03/05 04:53:53;;;;;;;;;2.00;2.00;;;;;11.63;100.00;100421.28;6219804;22;45543;-83
2024/03/05 04:56:18;;;;;;;;;3.33;3.33;;;;;11.59;100.00;100424.81;6220457;22;46731;-83
2024/03/05 04:58:43;;;;;;;;;3.67;3.67;;;;;11.55;100.00;100409.72;6217607;22;45580;-84
2024/03/05 05:01:09;;;;;;;;;3.00;3.00;;;;;11.52;100.00;100420.34;6245077;22;45328;-84
2024/03/05 05:03:34;;;;;;;;;4.67;4.00;;;;;11.46;100.00;100415.00;6216590;22;45354;-84
2024/03/05 05:06:00;;;;;;;;;4.00;4.00;;;;;11.50;100.00;100419.47;6188659;22;60721;-84
2024/03/05 05:08:25;;;;;;;;;4.33;3.00;;;;;11.39;100.00;100417.63;6191107;22;44804;-84
2024/03/05 05:10:51;;;;;;;;;4.00;4.00;;;;;11.37;100.00;100415.81;6191489;22;45432;-83
2024/03/05 05:13:16;;;;;;;;;7.00;4.00;;;;;11.35;100.00;100429.16;6189297;22;45596;-83
2024/03/05 05:15:42;;;;;;;;;3.33;3.00;;;;;11.29;100.00;100423.78;6163195;22;47190;-83
2024/03/05 05:18:07;;;;;;;;;6.00;6.00;;;;;11.25;100.00;100419.34;6188823;22;45323;-84
2024/03/05 05:20:33;;;;;;;;;6.67;3.33;;;;;11.27;100.00;100425.56;6217332;22;45418;-84
2024/03/05 05:22:58;;;;;;;;;2.67;2.67;;;;;11.34;100.00;100430.00;6189240;22;45458;-83
2024/03/05 05:25:23;;;;;;;;;3.67;3.00;;;;;11.33;100.00;100428.25;6187584;22;47041;-84
2024/03/05 05:27:50;;;;;;;;;3.67;3.67;;;;;11.40;100.00;100421.19;6187883;22;45363;-85
2024/03/05 05:30:20;;;;;;;;;7.33;4.00;;;;;11.52;100.00;100426.56;6217498;22;45396;-85
2024/03/05 05:32:49;;;;;;;;;7.00;7.00;;;;;11.37;100.00;100430.06;6189463;22;45493;-83
2024/03/05 05:35:16;;;;;;;;;4.00;4.00;;;;;11.33;100.00;100420.28;6190798;22;48218;-84
2024/03/05 05:37:43;;;;;;;;;10.00;9.00;;;;;11.29;100.00;100422.88;6190517;22;45805;-83
2024/03/05 05:40:10;;;;;;;;;3.00;3.00;;;;;11.26;100.00;100423.75;6216212;22;45472;-84
2024/03/05 05:42:39;;;;;;;;;3.00;3.00;;;;;11.20;100.00;100424.59;6192336;22;45476;-84
2024/03/05 05:45:08;;;;;;;;;3.67;3.67;;;;;11.11;100.00;100424.56;6188369;22;48137;-85
2024/03/05 05:47:38;;;;;;;;;3.00;2.67;;;;;11.17;100.00;100421.06;6187292;22;45906;-84
2024/03/05 05:50:17;;;;;;;;;6.00;6.00;;;;;11.16;100.00;100438.78;6215630;22;45418;-85
2024/03/05 05:52:55;;;;;;;;;4.00;4.00;;;;;11.07;100.00;100443.13;6189138;22;45427;-84
2024/03/05 05:55:26;;;;;;;;;6.00;4.00;;;;;11.00;100.00;100436.88;6188203;22;47428;-84
2024/03/05 05:57:53;;;;;;;;;3.33;3.00;;;;;11.00;100.00;100443.09;6219044;22;45339;-85
2024/03/05 06:00:31;;;;;;;;;11.00;3.00;;;;;11.12;100.00;100446.72;6192666;22;45350;-84
2024/03/05 06:02:58;;;;;;;;;7.00;4.67;;;;;11.12;100.00;100452.94;6238310;22;45457;-83
2024/03/05 06:05:29;;;;;;;;;4.67;4.00;;;;;11.14;100.00;100439.66;6220144;22;47330;-84
2024/03/05 06:07:55;;;;;;;;;4.00;4.00;;;;;11.07;100.00;100453.78;6244573;22;45385;-84
2024/03/05 06:10:22;;;;;;;;;3.00;3.00;;;;;11.07;100.00;100460.03;6219415;22;45415;-84
2024/03/05 06:12:48;;;;;;;;;4.00;3.00;;;;;11.03;100.00;100458.22;6246128;22;45423;-84
2024/03/05 06:15:14;;;;;;;;;1.00;1.00;;;;;11.00;100.00;100455.50;6243895;22;45673;-84
2024/03/05 06:17:40;;;;;;;;;6.33;3.67;;;;;11.07;100.00;100454.69;6245369;22;45400;-84
2024/03/05 06:20:10;;;;;;;;;3.00;3.00;;;;;11.12;100.00;100468.03;6218280;22;45393;-84
2024/03/05 06:22:46;;;;;;;;;6.00;5.33;;;;;11.05;100.00;100459.13;6248274;22;45399;-84
2024/03/05 06:25:15;;;;;;;;;2.67;2.67;;;;;11.06;100.00;100463.53;6220390;22;48163;-84
2024/03/05 06:27:48;;;;;;;;;6.00;3.67;;;;;10.98;100.00;100455.50;6217410;22;45325;-84
2024/03/05 06:30:15;;;;;;;;;6.33;6.00;;;;;11.00;100.00;100464.38;6220095;22;45613;-84
2024/03/05 06:32:47;;;;;;;;;6.00;4.00;;;;;10.99;100.00;100449.31;6218473;22;45511;-84
2024/03/05 06:35:17;;;;;;;;;4.00;4.00;;;;;11.22;100.00;100475.19;6245731;22;45479;-84
2024/03/05 06:37:45;;;;;;;;;3.33;2.00;;;;;11.09;100.00;100449.34;6220761;22;45401;-85
2024/03/05 06:40:14;;;;;;;;;3.33;3.33;;;;;11.37;100.00;100467.31;6249707;22;44807;-85
2024/03/05 06:46:09;;;;;;;;;5.33;3.00;;;;;11.38;100.00;100461.09;6257219;22;45457;-84
2024/03/05 06:48:37;;;;;;;;;4.67;4.67;;;;;11.15;100.00;100460.97;6231391;22;45369;-85
2024/03/05 06:51:26;;;;;;;;;3.00;3.00;;;;;11.19;100.00;100461.88;6231518;22;44869;-83
2024/03/05 06:56:41;;;;;;;;;3.33;3.33;;;;;11.28;100.00;100453.94;6250618;22;45450;-83
2024/03/05 06:59:08;;;;;;;;;2.00;2.00;;;;;11.20;100.00;100450.34;6249458;22;45463;-84
2024/03/05 07:01:40;;;;;;;;;4.00;4.00;;;;;11.25;100.00;100469.00;6221504;22;45538;-83
2024/03/05 07:04:06;;;;;;;;;6.00;6.00;;;;;11.44;100.00;100483.34;6219920;22;45372;-83
2024/03/05 07:06:32;;;;;;;;;6.00;6.00;;;;;11.53;100.00;100494.94;6245788;22;45456;-83
2024/03/05 07:08:59;;;;;;;;;4.67;4.67;;;;;11.51;100.00;100478.06;6221415;22;45398;-84
2024/03/05 07:11:27;;;;;;;;;7.67;4.67;;;;;11.48;100.00;100486.03;6222062;22;45316;-83
2024/03/05 07:13:53;;;;;;;;;8.67;7.67;;;;;11.24;100.00;100446.81;6221945;22;45554;-81
2024/03/05 07:16:20;;;;;;;;;8.00;6.67;;;;;11.36;100.00;100468.19;6249075;22;46110;-83
2024/03/05 07:18:47;;;;;;;;;7.00;6.00;;;;;11.58;100.00;100489.63;6222235;22;45466;-83
2024/03/05 07:21:28;;;;;;;;;6.67;4.67;;;;;11.45;100.00;100455.81;6224165;22;45368;-83
2024/03/05 07:23:54;;;;;;;;;6.67;4.00;;;;;11.53;100.00;100488.69;6201888;22;45535;-83
2024/03/05 07:26:23;;;;;;;;;9.00;6.33;;;;;11.68;100.00;100495.91;6232506;22;46583;-83
2024/03/05 07:28:49;;;;;;;;;3.67;3.67;;;;;11.74;100.00;100509.28;6222043;22;45419;-82
2024/03/05 07:31:15;;;;;;;;;6.67;6.00;;;;;11.84;100.00;100499.56;6220415;22;45332;-82
2024/03/05 07:33:43;;;;;;;;;3.67;3.33;;;;;11.91;100.00;100488.06;6196380;22;45412;-82
2024/03/05 07:36:10;;;;;;;;;3.00;3.00;;;;;12.04;100.00;100511.22;6248489;22;45350;-82
2024/03/05 07:38:38;;;;;;;;;3.00;3.00;;;;;11.92;100.00;100496.06;6247921;22;45428;-83
2024/03/05 07:41:03;;;;;;;;;4.67;3.33;;;;;11.95;100.00;100505.84;6248466;22;45387;-82
2024/03/05 07:43:32;;;;;;;;;3.25;3.25;;;;;11.95;100.00;100480.06;6220345;22;45873;-82
2024/03/05 07:45:57;;;;;;;;;3.00;3.00;;;;;12.05;100.00;100504.13;6248104;22;45541;-82
2024/03/05 07:48:24;;;;;;;;;4.25;3.00;;;;;11.98;100.00;100482.78;6220575;22;45627;-81
2024/03/05 07:50:53;;;;;;;;;2.00;2.00;;;;;12.02;100.00;100507.66;6248727;22;45277;-84
2024/03/05 07:53:20;;;;;;;;;3.00;2.00;;;;;11.96;100.00;100496.97;6249216;22;45779;-84
2024/03/05 07:55:46;;;;;;;;;2.00;2.00;;;;;12.07;100.00;100492.56;6221737;22;47410;-83
2024/03/05 07:58:14;;;;;;;;;2.00;2.00;;;;;12.35;100.00;100506.00;6220786;22;45211;-83
2024/03/05 08:00:40;;;;;;;;;2.00;1.00;;;;;12.23;100.00;100497.97;6253565;22;45444;-83
2024/03/05 08:03:06;;;;;;;;;1.00;1.00;;;;;12.30;100.00;100510.41;6252911;22;45403;-83
2024/03/05 08:05:35;;;;;;;;;1.00;1.00;;;;;12.28;100.00;100506.84;6249612;22;46375;-82
2024/03/05 08:08:06;;;;;;;;;1.00;1.00;;;;;12.23;100.00;100496.19;6224333;22;44819;-83
2024/03/05 08:11:08;;;;;;;;;1.00;1.00;;;;;12.52;100.00;100541.63;6251961;22;45220;-83
2024/03/05 08:13:39;;;;;;;;;2.00;2.00;;;;;12.21;100.00;100529.94;6227987;22;45682;-83
2024/03/05 08:16:33;;;;;;;;;0.25;0.25;;;;;12.22;100.00;100507.75;6226434;22;47275;-82
2024/03/05 08:19:04;;;;;;;;;0.50;0.50;;;;;12.29;100.00;100532.66;6229345;22;45494;-85
2024/03/05 09:56:41;;;;;;;;;1.00;1.00;;;;;14.06;100.00;100659.28;6184191;22;46376;-83
2024/03/05 09:59:29;;;;;;;;;0.75;0.00;;;;;13.91;100.00;100643.22;6200001;22;45734;-85
2024/03/05 10:01:59;;;;;;;;;0.00;0.00;;;;;13.80;100.00;100662.84;6203354;22;45500;-83
2024/03/05 10:04:47;;;;;;;;;;;;;;;;;;;;;
2024/03/05 10:07:51;;;;;;;;;1.75;1.75;;;;;14.06;100.00;100663.69;6232394;22;44943;-84
2024/03/05 10:10:40;;;;;;;;;1.25;1.25;;;;;14.11;100.00;100675.31;6209350;22;44767;-85
2024/03/05 10:15:47;;;;;;;;;0.75;0.50;;;;;13.84;100.00;100626.31;6247280;22;47080;-83
2024/03/05 10:18:41;;;;;;;;;0.50;0.50;;;;;13.97;100.00;100635.22;6233385;22;44758;-85
2024/03/05 10:21:33;;;;;;;;;1.00;1.00;;;;;14.19;100.00;100690.44;6211571;22;45689;-83
2024/03/05 10:26:45;;;;;;;;;0.00;0.00;;;;;13.82;100.00;100686.03;6251564;22;46109;-85
2024/03/05 10:29:16;;;;;;;;;1.00;1.00;;;;;13.79;100.00;100692.25;6214953;22;45352;-85
2024/03/05 10:32:14;;;;;;;;;1.50;0.00;;;;;13.89;100.00;100698.50;6235794;22;45324;-86
2024/03/05 10:34:59;;;;;;;;;2.00;1.00;;;;;13.80;100.00;100691.38;6260305;22;44706;-84
2024/03/05 10:37:28;;;;;;;;;0.00;0.00;;;;;13.95;100.00;100698.50;6234706;22;45296;-85
2024/03/05 10:40:08;;;;;;;;;1.00;1.00;;;;;14.05;100.00;100694.91;6230908;22;45839;-85
2024/03/05 10:42:42;;;;;;;;;1.00;1.00;;;;;13.76;100.00;100660.19;6233660;22;44880;-85
2024/03/05 10:45:16;;;;;;;;;1.00;1.00;;;;;13.94;98.31;100680.69;6232375;22;44843;-83
2024/03/05 10:47:44;;;;;;;;;1.33;0.67;;;;;14.07;100.00;100676.19;6211154;22;45568;-84
2024/03/05 10:54:09;;;;;;;;;1.00;1.00;;;;;14.44;96.62;100703.78;6259459;22;45350;-85
2024/03/05 10:56:36;;;;;;;;;1.33;1.00;;;;;14.18;97.64;100685.13;6236960;22;45354;-84
2024/03/05 11:07:21;;;;;;;;;1.00;1.00;;;;;14.23;98.17;100685.97;6230128;22;46096;-84
2024/03/05 11:09:49;;;;;;;;;0.33;0.33;;;;;14.28;96.64;100669.91;6233857;22;45266;-84
2024/03/05 11:19:00;;;;;;;;;1.25;1.25;;;;;14.94;92.97;100699.16;6246429;22;44959;-84
2024/03/05 11:22:26;;;;;;;;;0.67;0.67;;;;;15.14;92.55;100712.47;6248290;22;45105;-84
2024/03/05 11:42:43;;;;;;;;;;;;;;;;;;;;;
2024/03/05 12:11:48;;;;;;;;;2.00;2.00;;;;;15.29;84.89;100673.97;6235934;22;46580;-84
2024/03/05 12:14:16;;;;;;;;;3.33;1.67;;;;;15.14;84.53;100685.69;6260933;22;45340;-84
2024/03/05 12:16:49;;;;;;;;;2.33;2.33;;;;;15.23;84.67;100669.56;6235585;22;44678;-82
2024/03/05 12:19:17;;;;;;;;;3.00;0.75;;;;;15.53;87.23;100703.31;6236378;22;44788;-83
2024/03/05 12:35:26;;;;;;;;;4.25;3.50;;;;;15.89;82.82;100695.88;6204879;22;46680;-83
2024/03/05 13:40:36;;;;;;;;;;;;;;;;;;;;;
2024/03/05 13:58:18;;;;;;;;;0.00;0.00;;;;;13.75;81.11;100706.50;6234417;22;44904;-83
2024/03/05 14:00:50;;;;;;;;;1.50;0.25;;;;;14.11;82.12;100726.13;6161452;23;45891;-84
2024/03/05 14:09:27;;;;;;;;;0.00;0.00;;;;;15.13;82.70;100711.59;6194952;22;46779;-83
2024/03/05 14:12:23;;;;;;;;;3.00;1.00;;;;;15.06;81.62;100677.69;6234390;22;45132;-83
2024/03/05 14:15:19;;;;;;;;;0.00;0.00;;;;;15.19;79.48;100716.03;6233941;22;44914;-83
2024/03/05 14:18:23;;;;;;;;;;;;;;;;;;;;;
2024/03/05 15:00:05;;;;;;;;;2.00;2.00;;;;;16.27;73.78;100710.75;6258182;22;45002;-84
2024/03/05 16:03:16;;;;;;;;;1.50;0.00;;;;;15.41;71.46;100765.00;6230608;22;44891;-85
2024/03/05 16:40:13;;;;;;;;;1.00;1.00;;;;;14.01;72.82;100790.28;6082771;23;44862;-87
2024/03/05 16:43:25;;;;;;;;;1.75;1.75;;;;;14.21;72.36;100819.72;6078431;23;44839;-84
2024/03/05 16:50:09;;;;;;;;;;;;;;;;;;;;;
2024/03/05 16:56:41;;;;;;;;;2.00;0.50;;;;;14.07;75.57;100829.50;5855633;24;44838;-84
2024/03/05 17:02:56;;;;;;;;;1.00;1.00;;;;;13.75;74.47;100798.25;5855090;24;45328;-84
2024/03/05 17:05:59;;;;;;;;;0.75;0.75;;;;;13.74;74.52;100819.66;5879219;24;45335;-84
2024/03/05 17:08:48;;;;;;;;;2.00;1.00;;;;;13.50;75.30;100801.78;5880491;24;45189;-86
2024/03/05 17:11:22;;;;;;;;;1.00;1.00;;;;;13.58;76.12;100824.97;5861609;24;44812;-85
2024/03/05 17:14:08;;;;;;;;;1.00;1.00;;;;;13.65;76.11;100844.56;5884710;24;47685;-84
2024/03/05 17:19:37;;;;;;;;;1.00;1.00;;;;;13.50;77.68;100850.75;6228641;22;45755;-84
2024/03/05 17:22:24;;;;;;;;;2.75;2.00;;;;;13.36;78.15;100858.72;6236783;22;45120;-84
2024/03/05 17:25:21;;;;;;;;;3.25;3.00;;;;;13.50;77.78;100856.09;6232093;22;45572;-84
2024/03/05 17:34:08;;;;;;;;;0.50;0.00;;;;;12.95;77.19;100846.03;6167039;23;45237;-84
2024/03/05 17:37:04;;;;;;;;;1.00;0.75;;;;;13.15;77.11;100877.28;6139591;23;46582;-85
2024/03/05 17:39:36;;;;;;;;;3.00;1.00;;;;;12.64;77.07;100841.34;6140197;23;45457;-84
2024/03/05 17:42:15;;;;;;;;;1.00;0.00;;;;;12.80;77.48;100846.81;6134310;23;45355;-85
2024/03/05 17:44:52;;;;;;;;;1.00;1.00;;;;;12.96;77.91;100879.81;6134340;23;44927;-85
2024/03/05 17:47:38;;;;;;;;;;;;;;;;;;;;;
2024/03/05 17:50:38;;;;;;;;;0.00;0.00;;;;;12.95;77.67;100894.06;6156441;23;72615;-85
2024/03/05 17:53:16;;;;;;;;;2.00;1.75;;;;;12.70;78.12;100849.41;6115275;23;44754;-85
2024/03/05 17:56:21;;;;;;;;;1.50;1.50;;;;;12.88;77.88;100891.34;6158940;23;44955;-84
2024/03/05 17:59:41;;;;;;;;;1.00;1.00;;;;;12.79;77.08;100893.06;6133923;23;46475;-85
2024/03/05 18:02:19;;;;;;;;;1.50;1.00;;;;;12.68;78.28;100905.41;6064701;23;44899;-85
2024/03/05 18:05:05;;;;;;;;;1.00;1.00;;;;;12.46;78.90;100887.44;6136609;23;45819;-84
2024/03/05 18:08:04;;;;;;;;;1.00;1.00;;;;;12.38;78.89;100868.69;6128436;23;45022;-85
2024/03/05 18:10:32;;;;;;;;;3.00;1.25;;;;;12.38;79.67;100888.28;6169639;22;45766;-83
2024/03/05 18:13:07;;;;;;;;;1.00;1.00;;;;;12.33;80.19;100862.44;6224160;22;45143;-85
2024/03/05 18:15:51;;;;;;;;;;;;;;;;;;;;;
2024/03/05 18:21:52;;;;;;;;;1.25;1.00;;;;;12.57;80.00;100894.66;6218921;22;45366;-84
2024/03/05 18:24:23;;;;;;;;;1.00;1.00;;;;;12.42;80.36;100921.19;6229447;22;44819;-84
2024/03/05 18:26:51;;;;;;;;;1.00;1.00;;;;;12.17;78.17;100885.41;6202493;22;44980;-84
2024/03/05 18:29:20;;;;;;;;;1.00;1.00;;;;;11.93;79.51;100875.38;6201596;22;44939;-86
2024/03/05 18:31:51;;;;;;;;;0.00;0.00;;;;;11.96;80.14;100910.97;6226232;22;45379;-86
2024/03/05 18:34:19;;;;;;;;;2.00;0.00;;;;;12.08;79.88;100922.63;6199288;22;45397;-84
2024/03/05 18:36:54;;;;;;;;;0.75;0.75;;;;;12.23;80.23;100922.81;6197565;22;44950;-84
2024/03/05 18:39:22;;;;;;;;;0.00;0.00;;;;;12.09;80.15;100925.31;6199022;22;45693;-85
2024/03/05 18:41:54;;;;;;;;;0.75;0.75;;;;;11.95;80.24;100886.97;6197056;22;45747;-85
2024/03/05 18:44:20;;;;;;;;;4.00;1.00;;;;;11.83;80.54;100895.69;6224241;22;44765;-85
2024/03/05 18:47:21;;;;;;;;;4.00;1.33;;;;;12.26;80.62;100929.94;6223858;22;45277;-85
2024/03/05 18:49:50;;;;;;;;;1.00;1.00;;;;;12.00;80.46;100922.56;6224802;22;44817;-85
2024/03/05 18:52:19;;;;;;;;;1.00;1.00;;;;;11.84;81.02;100904.59;6221022;22;46860;-85
2024/03/05 18:54:45;;;;;;;;;0.50;0.50;;;;;11.91;80.65;100927.78;6196093;22;45819;-85
2024/03/05 18:57:18;;;;;;;;;1.00;1.00;;;;;11.86;81.35;100890.41;6196844;22;45270;-84
2024/03/05 18:59:44;;;;;;;;;3.00;3.00;;;;;11.80;81.54;100922.31;6195282;22;45376;-84
2024/03/05 19:02:11;;;;;;;;;1.00;1.00;;;;;11.97;81.06;100914.53;6194442;22;46923;-85
2024/03/05 19:04:40;;;;;;;;;1.00;1.00;;;;;11.87;80.75;100888.63;6193887;22;45643;-85
2024/03/05 19:07:06;;;;;;;;;1.25;1.25;;;;;11.89;81.62;100921.53;6195566;22;44944;-85
2024/03/05 19:09:35;;;;;;;;;1.00;1.00;;;;;11.98;81.52;100932.31;6198792;22;45392;-85
2024/03/05 19:12:02;;;;;;;;;2.00;2.00;;;;;11.97;81.45;100919.84;6195024;22;47352;-84
2024/03/05 19:14:30;;;;;;;;;1.67;1.67;;;;;11.86;81.84;100889.50;6194001;22;44834;-85
2024/03/05 19:16:55;;;;;;;;;2.00;1.00;;;;;11.72;81.89;100882.25;6192999;22;44826;-84
2024/03/05 19:19:28;;;;;;;;;2.00;1.00;;;;;11.74;80.68;100888.47;6194730;22;45289;-84
2024/03/05 19:21:55;;;;;;;;;1.25;1.00;;;;;11.88;80.50;100925.94;6188692;23;47185;-85
2024/03/05 19:24:31;;;;;;;;;3.00;3.00;;;;;11.88;80.33;100933.94;6192939;23;45333;-83
2024/03/05 19:26:57;;;;;;;;;1.00;1.00;;;;;11.78;80.67;100929.38;6166987;23;45451;-84
2024/03/05 19:29:24;;;;;;;;;2.67;2.67;;;;;11.70;80.69;100926.63;6196418;22;45408;-84
2024/03/05 19:31:55;;;;;;;;;1.00;1.00;;;;;11.86;80.48;100925.03;6170554;23;47417;-86
2024/03/05 19:34:21;;;;;;;;;2.00;2.00;;;;;11.62;80.71;100922.97;6195641;22;44842;-86
2024/03/05 19:36:47;;;;;;;;;1.00;1.00;;;;;11.68;79.88;100925.72;6196003;22;44735;-86
2024/03/05 19:39:15;;;;;;;;;0.00;0.00;;;;;11.45;80.15;100901.41;6169503;23;44986;-86
2024/03/05 19:41:41;;;;;;;;;3.00;3.00;;;;;11.55;80.09;100921.09;6170165;23;46863;-86
2024/03/05 19:44:08;;;;;;;;;4.00;2.00;;;;;11.65;80.20;100936.31;6193780;22;44793;-86
2024/03/05 19:46:36;;;;;;;;;1.25;0.00;;;;;11.41;80.56;100921.81;6196146;22;44858;-86
2024/03/05 19:49:03;;;;;;;;;2.67;1.00;;;;;11.26;80.69;100892.31;6193937;22;44885;-86
2024/03/05 19:51:29;;;;;;;;;2.00;2.00;;;;;11.30;80.58;100912.78;6193899;23;47540;-86
2024/03/05 19:53:59;;;;;;;;;1.67;1.67;;;;;11.18;81.06;100872.69;6195907;22;44887;-86
2024/03/05 19:56:25;;;;;;;;;3.33;3.33;;;;;11.14;80.92;100890.38;6168869;23;44903;-85
2024/03/05 19:58:51;;;;;;;;;2.00;2.00;;;;;11.10;81.02;100890.31;6170585;23;44841;-87
2024/03/05 20:01:18;;;;;;;;;3.33;3.33;;;;;11.10;81.23;100899.19;6196402;23;45090;-86
2024/03/05 20:03:43;;;;;;;;;4.67;2.67;;;;;11.20;81.64;100905.53;6195247;23;44920;-86
2024/03/05 20:06:09;;;;;;;;;3.67;2.33;;;;;11.07;81.64;100891.16;6193406;23;44778;-86
2024/03/05 20:08:38;;;;;;;;;3.67;3.67;;;;;11.23;81.45;100892.28;6195666;23;44881;-87
2024/03/05 20:11:05;;;;;;;;;3.33;2.00;;;;;11.27;81.55;100930.47;6193991;23;45246;-85
2024/03/05 20:13:31;;;;;;;;;1.00;1.00;;;;;10.99;81.48;100880.41;6169577;23;45435;-86
2024/03/05 20:15:57;;;;;;;;;2.67;2.67;;;;;11.26;81.79;100929.59;6194036;23;44873;-86
2024/03/05 20:18:23;;;;;;;;;4.33;3.67;;;;;11.25;82.33;100921.56;6195866;22;44857;-86
2024/03/05 20:20:52;;;;;;;;;2.00;2.00;;;;;11.34;82.26;100945.66;6193356;22;47183;-86
2024/03/05 20:23:17;;;;;;;;;3.00;3.00;;;;;11.16;82.49;100915.25;6218988;22;45065;-86
2024/03/05 20:25:52;;;;;;;;;4.00;3.00;;;;;11.26;83.21;100916.28;6199405;22;44919;-86
2024/03/05 20:28:23;;;;;;;;;3.00;3.00;;;;;11.06;83.38;100899.13;6176942;22;44751;-86
2024/03/05 20:30:57;;;;;;;;;4.67;4.67;;;;;11.30;83.34;100928.75;6225903;22;45700;-86
2024/03/05 20:33:26;;;;;;;;;7.33;7.00;;;;;11.16;83.68;100904.59;6198751;22;44891;-87
2024/03/05 20:36:22;;;;;;;;;8.00;7.00;;;;;11.15;84.50;100905.47;6198607;22;44853;-86
2024/03/05 20:38:50;;;;;;;;;8.67;7.00;;;;;11.09;84.50;100909.78;6224712;22;45405;-85
2024/03/05 20:41:38;;;;;;;;;8.00;6.00;;;;;10.99;84.63;100901.69;6199166;22;47231;-86
2024/03/05 20:46:51;;;;;;;;;3.00;2.67;;;;;10.81;84.96;100909.41;6226417;22;44845;-85
2024/03/05 20:49:22;;;;;;;;;3.33;3.33;;;;;11.15;85.07;100941.81;6200508;22;45328;-86
2024/03/05 20:51:50;;;;;;;;;3.00;3.00;;;;;10.78;85.53;100904.91;6198290;22;47263;-86
2024/03/05 20:54:26;;;;;;;;;;;;;;;;;;;;;
2024/03/05 20:56:55;;;;;;;;;5.33;5.33;;;;;10.78;85.66;100902.25;6225860;22;68062;-86
2024/03/05 20:59:51;;;;;;;;;;;;;;;;;;;;;
2024/03/05 21:02:21;;;;;;;;;5.00;3.67;;;;;10.65;86.17;100918.00;6225074;22;74698;-85